CYBW/YBW METAR and TAF weather

Enter ICAO airport designator
Station Type Date Time Source
CYBW METAR 2022/01/29 02:00 UTC NOAA

CYBW 290200Z AUTO 26016KT 9SM OVC220 06/M15 A2998 RMK SLP183


Station Type Date Time Source
CYBW Decoded METAR 2022/01/29 02:00 UTC NOAA

Calgary / Springbank, Canada (CYBW) 51-06N 114-22W
Jan 28, 2022 - 09:00 PM EST / 2022.01.29 0200 UTC
Wind: from the W (260 degrees) at 18 MPH (16 KT):0
Visibility: 9 mile(s):0
Sky conditions: overcast
Temperature: 42 F (6 C)
Dew Point: 5 F (-15 C)
Relative Humidity: 20%
Pressure (altimeter): 29.98 in. Hg (1015 hPa)
ob: CYBW 290200Z AUTO 26016KT 9SM OVC220 06/M15 A2998 RMK SLP183
cycle: 2

Station Type Date Time Source
CYBW TAF 2022/01/28 20:18 UTC NOAA

TAF
AMD TAF
AMD CYBW 282016Z 2820/2905 33008KT P6SM SCT200 BKN260
TEMPO 2820/2901 32012G22KT
RMK FCST BASED ON AUTO OBS. NXT FCST BY 290000Z

Example: see airport list